createdAt,value
2023-04-27T00:00:13.265Z,7.30
2023-04-27T00:06:46.337Z,7.20
2023-04-27T00:41:52.515Z,6.70
2023-04-27T00:44:55.431Z,6.80
2023-04-27T00:48:36.006Z,6.70
2023-04-27T00:51:47.834Z,6.70
2023-04-27T01:05:50.189Z,6.60
2023-04-27T01:09:40.697Z,6.40
2023-04-27T01:13:06.438Z,6.50
2023-04-27T01:18:50.157Z,6.40
2023-04-27T01:30:40.649Z,6.30
2023-04-27T01:33:22.901Z,6.20
2023-04-27T01:35:56.447Z,6.00
2023-04-27T01:38:27.341Z,6.00
2023-04-27T01:41:04.913Z,6.00
2023-04-27T01:43:40.514Z,5.90
2023-04-27T01:46:27.633Z,5.90
2023-04-27T01:49:37.131Z,5.90
2023-04-27T01:52:17.510Z,6.00
2023-04-27T01:54:49.984Z,5.90
2023-04-27T01:57:41.001Z,6.00
2023-04-27T02:00:31.669Z,6.00
2023-04-27T02:03:19.942Z,6.00
2023-04-27T02:06:00.503Z,5.80
2023-04-27T02:08:51.859Z,5.70
2023-04-27T02:11:37.273Z,5.70
2023-04-27T02:14:45.723Z,5.80
2023-04-27T02:17:20.768Z,5.80
2023-04-27T02:20:10.974Z,5.70
2023-04-27T02:25:56.244Z,5.60
2023-04-27T02:32:08.826Z,5.70
2023-04-27T02:34:53.262Z,5.80
2023-04-27T02:38:25.829Z,5.80
2023-04-27T02:41:20.534Z,5.80
2023-04-27T02:44:23.537Z,5.80
2023-04-27T02:53:40.350Z,5.70
2023-04-27T03:10:49.123Z,5.50
2023-04-27T03:13:49.970Z,5.50
2023-04-27T03:16:57.914Z,5.60
2023-04-27T03:53:05.252Z,5.50
2023-04-27T03:55:41.426Z,5.40
2023-04-27T03:58:13.151Z,5.30
2023-04-27T04:00:49.082Z,5.30
2023-04-27T04:03:59.733Z,5.40
2023-04-27T04:10:20.316Z,5.30
2023-04-27T04:16:21.053Z,5.30
2023-04-27T04:19:13.327Z,5.20
2023-04-27T04:28:56.743Z,5.00
2023-04-27T04:34:37.157Z,5.20
2023-04-27T04:37:28.364Z,5.20
2023-04-27T04:40:22.402Z,5.30
2023-04-27T04:43:32.852Z,5.20
2023-04-27T04:54:06.586Z,5.10
2023-04-27T04:56:45.000Z,5.10
2023-04-27T05:02:32.875Z,5.20
2023-04-27T05:05:20.695Z,5.30
2023-04-27T05:08:46.227Z,5.50
2023-04-27T05:11:45.696Z,5.50
2023-04-27T05:14:24.721Z,5.60
2023-04-27T05:16:53.166Z,5.80
2023-04-27T05:19:22.002Z,5.90
2023-04-27T05:21:52.068Z,5.90
2023-04-27T05:24:23.205Z,6.00
2023-04-27T05:27:07.126Z,6.00
2023-04-27T05:29:37.913Z,6.10
2023-04-27T05:36:33.699Z,6.30
2023-04-27T05:40:32.484Z,6.30
2023-04-27T05:43:50.583Z,6.30
2023-04-27T05:47:38.248Z,6.30
2023-04-27T05:50:08.255Z,6.60
2023-04-27T05:52:38.320Z,7.00
2023-04-27T05:55:09.334Z,7.30
2023-04-27T05:57:37.819Z,7.50
2023-04-27T06:00:11.299Z,7.70
2023-04-27T06:02:39.741Z,8.10
2023-04-27T06:05:08.861Z,8.40
2023-04-27T06:07:37.906Z,8.70
2023-04-27T06:10:09.236Z,9.10
2023-04-27T06:12:38.441Z,9.00
2023-04-27T06:15:09.325Z,9.00
2023-04-27T06:17:37.987Z,9.20
2023-04-27T06:20:08.680Z,9.20
2023-04-27T06:22:38.325Z,9.30
2023-04-27T06:25:09.010Z,9.20
2023-04-27T06:27:37.710Z,9.10
2023-04-27T06:30:07.594Z,9.00
2023-04-27T06:32:35.819Z,9.00
2023-04-27T06:35:04.082Z,9.20
2023-04-27T06:37:32.855Z,9.60
2023-04-27T06:40:01.129Z,9.80
2023-04-27T06:42:30.986Z,9.90
2023-04-27T06:44:59.973Z,10.10
2023-04-27T06:47:28.708Z,10.20
2023-04-27T06:49:57.111Z,10.20
2023-04-27T06:52:25.882Z,10.30
2023-04-27T06:54:54.381Z,10.40
2023-04-27T06:57:22.550Z,10.40
2023-04-27T06:59:53.254Z,10.20
2023-04-27T07:02:23.148Z,10.30
2023-04-27T07:04:52.973Z,10.50
2023-04-27T07:07:21.431Z,10.40
2023-04-27T07:09:49.579Z,10.40
2023-04-27T07:12:18.295Z,10.40
2023-04-27T07:14:47.218Z,10.70
2023-04-27T07:17:20.047Z,10.80
2023-04-27T07:19:51.713Z,11.00
2023-04-27T07:22:20.510Z,11.40
2023-04-27T07:24:49.552Z,11.40
2023-04-27T07:27:18.913Z,11.40
2023-04-27T07:29:48.605Z,11.40
2023-04-27T07:32:19.181Z,10.90
2023-04-27T07:34:53.398Z,10.60
2023-04-27T07:37:23.766Z,10.80
2023-04-27T07:39:53.915Z,11.10
2023-04-27T07:42:23.764Z,10.90
2023-04-27T07:44:52.720Z,11.00
2023-04-27T07:47:26.216Z,10.90
2023-04-27T07:49:55.960Z,11.10
2023-04-27T07:52:24.918Z,11.10
2023-04-27T07:54:53.580Z,11.00
2023-04-27T07:57:24.031Z,11.10
2023-04-27T07:59:59.582Z,11.20
2023-04-27T08:02:31.835Z,11.50
2023-04-27T08:05:03.243Z,11.70
2023-04-27T08:07:34.640Z,11.70
2023-04-27T08:10:06.883Z,11.60
2023-04-27T08:12:36.879Z,11.40
2023-04-27T08:15:07.465Z,11.50
2023-04-27T08:17:40.804Z,11.50
2023-04-27T08:20:11.733Z,11.40
2023-04-27T08:22:40.701Z,11.40
2023-04-27T08:25:10.974Z,11.60
2023-04-27T08:27:40.655Z,11.60
2023-04-27T08:30:10.198Z,11.70
2023-04-27T08:32:40.857Z,11.50
2023-04-27T08:35:10.134Z,11.70
2023-04-27T08:37:39.268Z,11.80
2023-04-27T08:40:10.080Z,11.90
2023-04-27T08:42:38.829Z,11.80
2023-04-27T08:45:09.725Z,11.90
2023-04-27T08:47:43.807Z,12.10
2023-04-27T08:50:12.891Z,12.00
2023-04-27T08:52:41.802Z,11.90
2023-04-27T08:55:10.714Z,12.00
2023-04-27T08:57:39.133Z,12.50
2023-04-27T09:00:13.516Z,12.60
2023-04-27T09:02:50.684Z,12.50
2023-04-27T09:05:19.937Z,12.50
2023-04-27T09:08:01.550Z,12.20
2023-04-27T09:10:30.474Z,12.30
2023-04-27T09:13:02.854Z,12.50
2023-04-27T09:15:32.227Z,12.80
2023-04-27T09:18:08.382Z,13.20
2023-04-27T09:20:44.732Z,13.10
2023-04-27T09:23:14.287Z,13.00
2023-04-27T09:25:42.624Z,12.90
2023-04-27T09:28:11.458Z,13.10
2023-04-27T09:30:40.550Z,13.00
2023-04-27T09:33:10.528Z,13.10
2023-04-27T09:35:39.181Z,13.50
2023-04-27T09:38:07.747Z,13.50
2023-04-27T09:40:37.152Z,13.60
2023-04-27T09:43:05.772Z,13.80
2023-04-27T09:45:35.149Z,13.90
2023-04-27T09:48:05.442Z,14.00
2023-04-27T09:50:39.853Z,14.40
2023-04-27T09:53:15.094Z,14.00
2023-04-27T09:55:51.180Z,14.30
2023-04-27T09:58:43.720Z,14.30
2023-04-27T10:01:20.178Z,13.60
2023-04-27T10:04:05.133Z,13.90
2023-04-27T10:07:01.829Z,14.10
2023-04-27T10:09:37.498Z,14.00
2023-04-27T10:12:17.438Z,14.10
2023-04-27T10:14:57.301Z,14.20
2023-04-27T10:25:44.387Z,14.80
2023-04-27T10:28:48.838Z,14.70
2023-04-27T10:31:56.397Z,14.40
2023-04-27T10:34:44.814Z,14.80
2023-04-27T11:16:59.013Z,15.40
2023-04-27T11:28:53.231Z,15.80
2023-04-27T11:31:22.116Z,15.80
2023-04-27T11:33:56.063Z,15.50
2023-04-27T11:36:27.750Z,15.60
2023-04-27T11:39:05.242Z,16.00
2023-04-27T11:41:46.854Z,16.50
2023-04-27T11:44:23.086Z,16.20
2023-04-27T11:46:54.489Z,16.20
2023-04-27T11:49:29.465Z,16.20
2023-04-27T11:52:22.292Z,16.30
2023-04-27T11:54:53.338Z,16.10
2023-04-27T11:57:30.282Z,16.10
2023-04-27T12:00:03.554Z,16.30
2023-04-27T12:02:33.068Z,16.00
2023-04-27T12:05:03.207Z,16.20
2023-04-27T12:07:32.842Z,16.70
2023-04-27T12:10:01.601Z,16.80
2023-04-27T12:12:30.438Z,16.90
2023-04-27T12:14:59.133Z,16.60
2023-04-27T12:17:28.190Z,16.70
2023-04-27T12:20:00.390Z,16.50
2023-04-27T12:22:30.208Z,16.80
2023-04-27T12:24:59.118Z,17.10
2023-04-27T12:27:28.002Z,17.20
2023-04-27T12:29:59.712Z,17.20
2023-04-27T12:32:28.423Z,17.30
2023-04-27T12:34:56.771Z,17.10
2023-04-27T12:37:26.952Z,17.10
2023-04-27T12:39:57.020Z,16.80
2023-04-27T12:42:25.194Z,16.60
2023-04-27T12:44:54.462Z,16.70
2023-04-27T12:49:54.853Z,16.90
2023-04-27T12:52:25.941Z,16.70
2023-04-27T12:54:58.022Z,16.50
2023-04-27T12:57:32.072Z,16.30
2023-04-27T13:00:01.805Z,16.50
2023-04-27T13:02:31.562Z,16.70
2023-04-27T13:05:01.951Z,16.70
2023-04-27T13:07:35.476Z,16.60
2023-04-27T13:10:04.521Z,16.70
2023-04-27T13:12:35.764Z,16.70
2023-04-27T13:15:06.545Z,16.90
2023-04-27T13:17:35.639Z,16.80
2023-04-27T13:20:10.841Z,16.70
2023-04-27T13:22:41.570Z,16.80
2023-04-27T13:25:17.323Z,16.60
2023-04-27T13:27:48.837Z,16.60
2023-04-27T13:30:17.908Z,16.80
2023-04-27T13:32:52.356Z,17.00
2023-04-27T13:35:21.567Z,17.10
2023-04-27T13:37:54.316Z,16.80
2023-04-27T13:40:24.199Z,17.00
2023-04-27T13:42:57.795Z,17.20
2023-04-27T13:45:26.029Z,17.20
2023-04-27T13:47:55.355Z,17.50
2023-04-27T13:50:24.247Z,17.70
2023-04-27T13:52:54.509Z,17.40
2023-04-27T13:55:26.478Z,17.50
2023-04-27T13:58:07.988Z,17.50
2023-04-27T14:00:42.947Z,17.90
2023-04-27T14:03:14.099Z,17.60
2023-04-27T14:05:46.488Z,17.00
2023-04-27T14:08:15.821Z,17.00
2023-04-27T14:10:50.730Z,17.10
2023-04-27T14:13:58.164Z,16.90
2023-04-27T14:16:31.901Z,16.70
2023-04-27T14:31:45.192Z,16.60
2023-04-27T14:39:26.036Z,16.20
2023-04-27T14:46:46.548Z,16.20
2023-04-27T14:50:16.801Z,16.30
2023-04-27T14:55:58.372Z,16.30
2023-04-27T15:13:42.834Z,16.00
2023-04-27T15:20:15.915Z,15.60
2023-04-27T15:22:58.260Z,15.60
2023-04-27T15:25:27.500Z,15.90
2023-04-27T15:28:33.821Z,16.10
2023-04-27T15:35:53.346Z,16.10
2023-04-27T15:38:57.800Z,16.00
2023-04-27T16:04:20.484Z,15.70
2023-04-27T16:11:23.675Z,15.60
2023-04-27T20:13:44.481Z,12.60
2023-04-27T20:16:25.986Z,12.50
2023-04-27T20:18:56.258Z,12.40
2023-04-27T20:21:28.422Z,12.30
2023-04-27T20:23:57.355Z,12.40
2023-04-27T20:26:29.248Z,12.20
2023-04-27T20:29:07.051Z,12.20
2023-04-27T20:31:57.947Z,12.20
2023-04-27T20:34:35.459Z,12.20
2023-04-27T20:37:04.987Z,12.20
2023-04-27T20:39:37.708Z,12.20
2023-04-27T20:42:08.395Z,12.10
2023-04-27T20:44:46.524Z,12.00
2023-04-27T20:47:18.890Z,12.10
2023-04-27T20:50:00.666Z,12.10
2023-04-27T20:52:35.232Z,12.10
2023-04-27T20:55:16.461Z,12.10
2023-04-27T20:57:51.329Z,12.10
2023-04-27T21:00:32.201Z,12.20
2023-04-27T21:03:08.423Z,12.10
2023-04-27T21:05:46.535Z,12.10
2023-04-27T21:08:42.731Z,12.00
2023-04-27T21:11:33.460Z,12.00
2023-04-27T21:21:39.717Z,12.10
2023-04-27T21:31:12.795Z,12.00
2023-04-27T21:34:55.902Z,12.00
2023-04-27T21:41:00.546Z,12.00
2023-04-27T21:50:47.956Z,11.80
2023-04-27T21:54:00.884Z,11.90
2023-04-27T21:57:20.125Z,11.70
2023-04-27T22:12:09.336Z,11.80
2023-04-27T22:14:50.168Z,11.80
2023-04-27T22:17:52.816Z,11.70
2023-04-27T22:21:19.321Z,11.70
2023-04-27T22:24:02.552Z,11.80
2023-04-27T22:26:40.428Z,11.90
2023-04-27T22:29:39.876Z,11.90
2023-04-27T22:32:39.691Z,12.00
2023-04-27T22:35:27.121Z,11.90
2023-04-27T22:38:08.100Z,11.90
2023-04-27T22:40:51.601Z,11.90
2023-04-27T22:47:53.659Z,11.90
2023-04-27T22:50:28.341Z,12.00
2023-04-27T22:53:06.718Z,12.00
2023-04-27T22:55:43.349Z,12.00
2023-04-27T22:58:12.643Z,12.00
2023-04-27T23:00:49.510Z,12.00
2023-04-27T23:03:24.718Z,12.10
2023-04-27T23:05:54.513Z,12.20
2023-04-27T23:08:26.715Z,12.10
2023-04-27T23:10:55.490Z,12.10
2023-04-27T23:13:27.856Z,12.00
2023-04-27T23:15:57.413Z,11.90
2023-04-27T23:18:27.692Z,11.80
2023-04-27T23:21:01.164Z,11.70
2023-04-27T23:23:30.028Z,11.50
2023-04-27T23:26:15.463Z,11.60
2023-04-27T23:28:44.430Z,11.60
2023-04-27T23:31:14.220Z,11.50
2023-04-27T23:33:52.510Z,11.60
2023-04-27T23:36:22.049Z,11.20
2023-04-27T23:39:09.748Z,11.00
2023-04-27T23:41:38.821Z,10.90
2023-04-27T23:44:07.263Z,10.80
2023-04-27T23:46:36.752Z,10.70
2023-04-27T23:49:21.670Z,10.60
2023-04-27T23:51:55.647Z,10.50
2023-04-27T23:54:52.979Z,10.50
2023-04-27T23:57:21.848Z,10.50
